Terminal Aerodrome Forecast
Issued by NWS

Home | Current Version | Previous Version | Text Only | Print | Product List | Glossary On
Versions: 1 2 3 4 5 6 7 8 9 10 11 12 13 14
000
FTUS45 KRIW 230500
TAFBPI
TAF
KBPI 230520Z 2306/2406 31016G26KT P6SM VCSH SCT035 BKN060
      TEMPO 2306/2308 4SM -SHSN BKN025
     FM231300 29015G25KT P6SM SCT040 BKN060
     FM231800 30022G32KT P6SM VCSH SCT045 BKN060
     FM240100 30013KT P6SM BKN080
     FM240500 30008KT P6SM SCT080=

USA.gov is the U.S. government's official web portal to all federal, state and local government web resources and services.